Time;durP1;ratioP1;P1;durP2;ratioP2;P2;SDS_P1;SDS_P2;PMS_P1;PMS_P2;Temp;Humidity;BMP_temperature;BMP_pressure;BME280_temperature;BME280_humidity;BME280_pressure;Samples;Min_cycle;Max_cycle;Signal;HPM_P1;HPM_P2
2021/11/30 00:00:07;;;;;;;;;;;;;;;;;;1013620;29;1070;-19
2021/11/30 00:00:57;;;;;;;;;;;;;;;;;;1012855;29;1094;-19
2021/11/30 00:01:29;;;;;;;;;;;;;;;;;;1013300;29;1009;-19
2021/11/30 00:02:00;;;;;;;;;;;;;;;;;;1012912;29;1034;-19
2021/11/30 00:02:30;;;;;;;;;;;;;;;;;;1012352;29;1329;-19
2021/11/30 00:03:01;;;;;;;;;;;;;;;;;;1012902;29;978;-19
2021/11/30 00:03:31;;;;;;;;;;;;;;;;;;1012950;29;991;-19
2021/11/30 00:04:02;;;;;;;;;;;;;;;;;;1013407;29;831;-19
2021/11/30 00:04:32;;;;;;;;;;;;;;;;;;1013756;29;983;-19
2021/11/30 00:05:03;;;;;;;;;;;;;;;;;;1013377;29;1749;-19
2021/11/30 00:05:34;;;;;;;;;;;;;;;;;;1013371;29;1028;-19
2021/11/30 00:06:05;;;;;;;;;;;;;;;;;;1013674;29;896;-19
2021/11/30 00:06:36;;;;;;;;;;;;;;;;;;1008058;29;1563;-19
2021/11/30 00:07:06;;;;;;;;;;;;;;;;;;1009213;29;1007;-19
2021/11/30 00:07:37;;;;;;;;;;;;;;;;;;1008491;29;1331;-19
2021/11/30 00:08:08;;;;;;;;;;;;;;;;;;1005187;29;1090;-19
2021/11/30 00:08:39;;;;;;;;;;;;;;;;;;1008741;29;1077;-21
2021/11/30 00:10:46;;;;;;;;;;;;;;;;;;1014864;29;1352;-19
2021/11/30 00:11:16;;;;;;;;;;;;;;;;;;1016937;29;1084;-19
2021/11/30 00:11:47;;;;;;;;;;;;;;;;;;1017712;29;1071;-19
2021/11/30 00:12:19;;;;;;;;;;;;;;;;;;1017232;29;911;-19
2021/11/30 00:12:49;;;;;;;;;;;;;;;;;;1017408;29;1323;-19
2021/11/30 00:13:21;;;;;;;;;;;;;;;;;;1017280;29;1062;-19
2021/11/30 00:13:51;;;;;;;;;;;;;;;;;;1017482;29;1131;-19
2021/11/30 00:14:22;;;;;;;;;;;;;;;;;;1017415;29;898;-19
2021/11/30 00:14:53;;;;;;;;;;;;;;;;;;1017434;29;946;-19
2021/11/30 00:15:23;;;;;;;;;;;;;;;;;;1017516;29;1027;-19
2021/11/30 00:15:57;;;;;;;;;;;;;;;;;;1016490;29;968;-19
2021/11/30 00:16:28;;;;;;;;;;;;;;;;;;1016558;29;1271;-19
2021/11/30 00:16:58;;;;;;;;;;;;;;;;;;1016623;29;948;-19
2021/11/30 00:17:29;;;;;;;;;;;;;;;;;;1012705;29;2009;-19
2021/11/30 00:17:59;;;;;;;;;;;;;;;;;;1016860;29;918;-19
2021/11/30 00:18:34;;;;;;;;;;;;;;;;;;1016288;29;1443;-19
2021/11/30 00:19:04;;;;;;;;;;;;;;;;;;1016996;29;1085;-19
2021/11/30 00:19:34;;;;;;;;;;;;;;;;;;1017298;29;1219;-19
2021/11/30 00:20:05;;;;;;;;;;;;;;;;;;1017570;29;993;-19
2021/11/30 00:20:37;;;;;;;;;;;;;;;;;;1017453;29;914;-19
2021/11/30 00:21:10;;;;;;;;;;;;;;;;;;1017218;29;981;-19
2021/11/30 00:21:41;;;;;;;;;;;;;;;;;;1016715;29;1600;-19
2021/11/30 00:22:12;;;;;;;;;;;;;;;;;;1015955;29;1335;-19
2021/11/30 00:22:43;;;;;;;;;;;;;;;;;;1008678;29;1027;-19
2021/11/30 00:23:14;;;;;;;;;;;;;;;;;;1008874;29;1046;-19
2021/11/30 00:23:45;;;;;;;;;;;;;;;;;;1012314;29;1521;-19
2021/11/30 00:24:15;;;;;;;;;;;;;;;;;;1013122;29;1173;-19
2021/11/30 00:24:46;;;;;;;;;;;;;;;;;;1016929;29;1360;-19
2021/11/30 00:25:17;;;;;;;;;;;;;;;;;;1012652;29;967;-19
2021/11/30 00:25:48;;;;;;;;;;;;;;;;;;1012707;29;1223;-19
2021/11/30 00:26:19;;;;;;;;;;;;;;;;;;1000841;29;1031;-18
2021/11/30 00:26:50;;;;;;;;;;;;;;;;;;1000829;29;1083;-19
2021/11/30 00:27:20;;;;;;;;;;;;;;;;;;1001444;29;1164;-19
2021/11/30 00:27:52;;;;;;;;;;;;;;;;;;1001003;29;1404;-19
2021/11/30 00:28:23;;;;;;;;;;;;;;;;;;1013086;29;1149;-19
2021/11/30 00:28:55;;;;;;;;;;;;;;;;;;1005073;29;1431;-19
2021/11/30 00:29:26;;;;;;;;;;;;;;;;;;1009278;29;1073;-19
2021/11/30 00:29:56;;;;;;;;;;;;;;;;;;1009047;29;1114;-19
2021/11/30 00:30:27;;;;;;;;;;;;;;;;;;1008661;29;1153;-19
2021/11/30 00:30:57;;;;;;;;;;;;;;;;;;1009061;29;796;-19
2021/11/30 00:31:28;;;;;;;;;;;;;;;;;;1008810;29;890;-19
2021/11/30 00:31:58;;;;;;;;;;;;;;;;;;1016935;29;1379;-19
2021/11/30 00:32:29;;;;;;;;;;;;;;;;;;1017199;29;928;-19
2021/11/30 00:33:00;;;;;;;;;;;;;;;;;;1017261;29;1579;-19
2021/11/30 00:33:31;;;;;;;;;;;;;;;;;;1016601;29;1060;-19
2021/11/30 00:34:02;;;;;;;;;;;;;;;;;;1012826;29;1169;-19
2021/11/30 00:34:33;;;;;;;;;;;;;;;;;;1008772;29;966;-19
2021/11/30 00:35:04;;;;;;;;;;;;;;;;;;1009039;29;893;-19
2021/11/30 00:35:35;;;;;;;;;;;;;;;;;;1008574;29;1176;-19
2021/11/30 00:36:06;;;;;;;;;;;;;;;;;;1012902;29;1252;-19
2021/11/30 00:36:36;;;;;;;;;;;;;;;;;;1016671;29;808;-19
2021/11/30 00:37:06;;;;;;;;;;;;;;;;;;1016810;29;1228;-19
2021/11/30 00:37:37;;;;;;;;;;;;;;;;;;1017275;29;1934;-18
2021/11/30 00:38:12;;;;;;;;;;;;;;;;;;1016585;29;1594;-19
2021/11/30 00:38:43;;;;;;;;;;;;;;;;;;1016760;29;1090;-19
2021/11/30 00:39:14;;;;;;;;;;;;;;;;;;1004729;29;1083;-19
2021/11/30 00:39:45;;;;;;;;;;;;;;;;;;1005169;29;1293;-19
2021/11/30 00:40:15;;;;;;;;;;;;;;;;;;1008607;29;1181;-19
2021/11/30 00:40:46;;;;;;;;;;;;;;;;;;1009386;29;1145;-19
2021/11/30 00:41:17;;;;;;;;;;;;;;;;;;1017193;29;970;-19
2021/11/30 00:41:50;;;;;;;;;;;;;;;;;;1017634;29;947;-19
2021/11/30 00:42:23;;;;;;;;;;;;;;;;;;1017180;29;1441;-19
2021/11/30 00:42:56;;;;;;;;;;;;;;;;;;1017425;29;1001;-19
2021/11/30 00:43:32;;;;;;;;;;;;;;;;;;1017532;29;980;-19
2021/11/30 00:44:03;;;;;;;;;;;;;;;;;;1017251;29;1047;-19
2021/11/30 00:44:36;;;;;;;;;;;;;;;;;;1012727;29;921;-19
2021/11/30 00:45:08;;;;;;;;;;;;;;;;;;1012750;29;1071;-19
2021/11/30 00:45:48;;;;;;;;;;;;;;;;;;1012840;29;943;-19
2021/11/30 00:46:20;;;;;;;;;;;;;;;;;;1014610;29;1104;-19
2021/11/30 00:46:54;;;;;;;;;;;;;;;;;;1016549;29;1018;-19
2021/11/30 00:47:28;;;;;;;;;;;;;;;;;;1017281;29;1097;-19
2021/11/30 00:47:59;;;;;;;;;;;;;;;;;;1017442;29;1146;-19
2021/11/30 00:48:31;;;;;;;;;;;;;;;;;;1017544;29;946;-19
2021/11/30 00:49:03;;;;;;;;;;;;;;;;;;1018194;29;1032;-19
2021/11/30 00:49:33;;;;;;;;;;;;;;;;;;1018384;29;957;-19
2021/11/30 00:50:05;;;;;;;;;;;;;;;;;;1018037;29;870;-19
2021/11/30 00:50:38;;;;;;;;;;;;;;;;;;1018340;29;1028;-19
2021/11/30 00:51:14;;;;;;;;;;;;;;;;;;1018160;29;903;-19
2021/11/30 00:51:45;;;;;;;;;;;;;;;;;;1018186;29;981;-19
2021/11/30 00:52:16;;;;;;;;;;;;;;;;;;1018109;29;903;-19
2021/11/30 00:52:46;;;;;;;;;;;;;;;;;;1017820;29;1270;-19
2021/11/30 00:53:18;;;;;;;;;;;;;;;;;;1018276;29;1061;-19
2021/11/30 00:53:50;;;;;;;;;;;;;;;;;;1013290;29;953;-19
2021/11/30 00:54:21;;;;;;;;;;;;;;;;;;1013136;29;1865;-19
2021/11/30 00:54:52;;;;;;;;;;;;;;;;;;1009458;29;1232;-19
2021/11/30 00:55:23;;;;;;;;;;;;;;;;;;1005295;29;1394;-20
2021/11/30 00:55:54;;;;;;;;;;;;;;;;;;1005807;29;997;-19
2021/11/30 00:56:25;;;;;;;;;;;;;;;;;;1006075;29;903;-20
2021/11/30 00:56:56;;;;;;;;;;;;;;;;;;1009336;29;1342;-19
2021/11/30 00:57:27;;;;;;;;;;;;;;;;;;1001305;29;1966;-19
2021/11/30 00:57:58;;;;;;;;;;;;;;;;;;1002147;29;1110;-19
2021/11/30 00:58:28;;;;;;;;;;;;;;;;;;1001842;29;934;-19
2021/11/30 00:58:58;;;;;;;;;;;;;;;;;;1009718;29;898;-19
2021/11/30 00:59:29;;;;;;;;;;;;;;;;;;1017916;29;970;-19
2021/11/30 00:59:59;;;;;;;;;;;;;;;;;;1018286;29;859;-19
2021/11/30 01:00:34;;;;;;;;;;;;;;;;;;1018070;29;1077;-19
2021/11/30 01:01:05;;;;;;;;;;;;;;;;;;1018135;29;1159;-19
2021/11/30 01:01:36;;;;;;;;;;;;;;;;;;1018226;29;915;-19
2021/11/30 01:02:07;;;;;;;;;;;;;;;;;;1017873;29;958;-19
2021/11/30 01:02:37;;;;;;;;;;;;;;;;;;1018198;29;1171;-19
2021/11/30 01:03:08;;;;;;;;;;;;;;;;;;1013505;29;1060;-19
2021/11/30 01:03:40;;;;;;;;;;;;;;;;;;1009353;29;978;-19
2021/11/30 01:04:10;;;;;;;;;;;;;;;;;;1009591;29;1173;-19
2021/11/30 01:04:41;;;;;;;;;;;;;;;;;;1009847;29;934;-19
2021/11/30 01:05:13;;;;;;;;;;;;;;;;;;1009817;29;927;-19
2021/11/30 01:05:44;;;;;;;;;;;;;;;;;;1005807;29;1066;-19
2021/11/30 01:06:15;;;;;;;;;;;;;;;;;;1005333;29;1037;-19
2021/11/30 01:06:45;;;;;;;;;;;;;;;;;;1006342;29;1095;-19
2021/11/30 01:07:16;;;;;;;;;;;;;;;;;;1013417;29;871;-19
2021/11/30 01:07:47;;;;;;;;;;;;;;;;;;1013437;29;1128;-19
2021/11/30 01:08:17;;;;;;;;;;;;;;;;;;1013234;29;1052;-19
2021/11/30 01:08:48;;;;;;;;;;;;;;;;;;1007861;29;1453;-19
2021/11/30 01:09:18;;;;;;;;;;;;;;;;;;1005459;29;1105;-19
2021/11/30 01:09:49;;;;;;;;;;;;;;;;;;1013363;29;1545;-19
2021/11/30 01:10:20;;;;;;;;;;;;;;;;;;1013245;29;1051;-19
2021/11/30 01:10:51;;;;;;;;;;;;;;;;;;1013444;29;1189;-19
2021/11/30 01:11:21;;;;;;;;;;;;;;;;;;1013218;29;1291;-19
2021/11/30 01:11:53;;;;;;;;;;;;;;;;;;1013220;29;1096;-19
2021/11/30 01:12:23;;;;;;;;;;;;;;;;;;1013027;29;1320;-19
2021/11/30 01:12:54;;;;;;;;;;;;;;;;;;1001457;29;1308;-19
2021/11/30 01:13:25;;;;;;;;;;;;;;;;;;997993;29;1060;-19
2021/11/30 01:13:56;;;;;;;;;;;;;;;;;;994014;29;1008;-19
2021/11/30 01:14:27;;;;;;;;;;;;;;;;;;998245;29;975;-19
2021/11/30 01:14:57;;;;;;;;;;;;;;;;;;1005658;29;1102;-19
2021/11/30 01:15:28;;;;;;;;;;;;;;;;;;1009383;29;1039;-19
2021/11/30 01:15:59;;;;;;;;;;;;;;;;;;1009737;29;1095;-19
2021/11/30 01:16:29;;;;;;;;;;;;;;;;;;1008998;29;1334;-19
2021/11/30 01:17:00;;;;;;;;;;;;;;;;;;1010238;29;1068;-19
2021/11/30 01:17:30;;;;;;;;;;;;;;;;;;1009724;29;1914;-19
2021/11/30 01:18:01;;;;;;;;;;;;;;;;;;1009916;29;1335;-19
2021/11/30 01:18:32;;;;;;;;;;;;;;;;;;1005380;29;1293;-19
2021/11/30 01:19:03;;;;;;;;;;;;;;;;;;1005527;29;1570;-19
2021/11/30 01:19:34;;;;;;;;;;;;;;;;;;1005194;29;1154;-19
2021/11/30 01:20:06;;;;;;;;;;;;;;;;;;1005567;29;1023;-19
2021/11/30 01:20:37;;;;;;;;;;;;;;;;;;1005395;29;1045;-19
2021/11/30 01:21:08;;;;;;;;;;;;;;;;;;1005654;29;1039;-19
2021/11/30 01:21:39;;;;;;;;;;;;;;;;;;1006315;29;1021;-19
2021/11/30 01:22:09;;;;;;;;;;;;;;;;;;1013414;29;1083;-19
2021/11/30 01:22:40;;;;;;;;;;;;;;;;;;1009467;29;842;-19
2021/11/30 01:23:10;;;;;;;;;;;;;;;;;;1009476;29;1001;-19
2021/11/30 01:23:41;;;;;;;;;;;;;;;;;;1009268;29;1019;-19
2021/11/30 01:24:11;;;;;;;;;;;;;;;;;;1009613;29;890;-19
2021/11/30 01:24:42;;;;;;;;;;;;;;;;;;1009089;29;1409;-19
2021/11/30 01:25:12;;;;;;;;;;;;;;;;;;1009602;29;1030;-19
2021/11/30 01:25:43;;;;;;;;;;;;;;;;;;1010065;29;990;-19
2021/11/30 01:26:13;;;;;;;;;;;;;;;;;;1010093;29;1090;-19
2021/11/30 01:26:44;;;;;;;;;;;;;;;;;;1009979;29;991;-19
2021/11/30 01:27:15;;;;;;;;;;;;;;;;;;1009636;29;848;-19
2021/11/30 01:27:47;;;;;;;;;;;;;;;;;;1010099;29;906;-19
2021/11/30 01:28:17;;;;;;;;;;;;;;;;;;1009151;29;1311;-18
2021/11/30 01:28:47;;;;;;;;;;;;;;;;;;1010201;29;1005;-19
2021/11/30 01:29:19;;;;;;;;;;;;;;;;;;1009944;29;1145;-19
2021/11/30 01:29:49;;;;;;;;;;;;;;;;;;1009750;29;1160;-19
2021/11/30 01:30:20;;;;;;;;;;;;;;;;;;1010195;29;1034;-19
2021/11/30 01:30:51;;;;;;;;;;;;;;;;;;1009963;29;990;-19
2021/11/30 01:31:21;;;;;;;;;;;;;;;;;;1010255;29;1018;-19
2021/11/30 01:31:52;;;;;;;;;;;;;;;;;;1009917;29;1285;-19
2021/11/30 01:32:23;;;;;;;;;;;;;;;;;;1010355;29;991;-19
2021/11/30 01:32:53;;;;;;;;;;;;;;;;;;1009855;29;919;-19
2021/11/30 01:33:23;;;;;;;;;;;;;;;;;;1010270;29;1007;-19
2021/11/30 01:33:54;;;;;;;;;;;;;;;;;;1009964;29;1015;-19
2021/11/30 01:34:24;;;;;;;;;;;;;;;;;;1010244;29;915;-19
2021/11/30 01:34:55;;;;;;;;;;;;;;;;;;1010067;29;1197;-19
2021/11/30 01:35:25;;;;;;;;;;;;;;;;;;1009913;29;1345;-19
2021/11/30 01:35:56;;;;;;;;;;;;;;;;;;1010153;29;1179;-18
2021/11/30 01:36:27;;;;;;;;;;;;;;;;;;1012828;29;1216;-19
2021/11/30 01:36:57;;;;;;;;;;;;;;;;;;1009312;29;1019;-19
2021/11/30 01:37:28;;;;;;;;;;;;;;;;;;1009309;29;1910;-19
2021/11/30 01:37:59;;;;;;;;;;;;;;;;;;1009283;29;1201;-19
2021/11/30 01:38:30;;;;;;;;;;;;;;;;;;1009618;29;1010;-19
2021/11/30 01:39:03;;;;;;;;;;;;;;;;;;1009391;29;952;-19
2021/11/30 01:39:33;;;;;;;;;;;;;;;;;;1010276;29;834;-24
2021/11/30 01:40:05;;;;;;;;;;;;;;;;;;1010089;29;892;-19
2021/11/30 01:40:36;;;;;;;;;;;;;;;;;;1009791;29;1318;-19
2021/11/30 01:41:07;;;;;;;;;;;;;;;;;;1010102;29;1086;-19
2021/11/30 01:41:41;;;;;;;;;;;;;;;;;;1009509;29;1619;-19
2021/11/30 01:42:13;;;;;;;;;;;;;;;;;;1010022;29;1030;-19
2021/11/30 01:42:46;;;;;;;;;;;;;;;;;;1009827;29;959;-19
2021/11/30 01:43:21;;;;;;;;;;;;;;;;;;1009441;29;1110;-19
2021/11/30 01:43:52;;;;;;;;;;;;;;;;;;1009354;29;1110;-19
2021/11/30 01:44:42;;;;;;;;;;;;;;;;;;1009498;29;984;-19
2021/11/30 01:45:21;;;;;;;;;;;;;;;;;;1004781;29;1003;-19
2021/11/30 01:46:06;;;;;;;;;;;;;;;;;;1001626;29;981;-19
2021/11/30 01:46:52;;;;;;;;;;;;;;;;;;1004569;29;1126;-19
2021/11/30 01:49:45;;;;;;;;;;;;;;;;;;1010922;29;1229;-19
2021/11/30 01:50:15;;;;;;;;;;;;;;;;;;1013274;29;1063;-19
2021/11/30 01:50:46;;;;;;;;;;;;;;;;;;1013288;29;918;-19
2021/11/30 01:51:17;;;;;;;;;;;;;;;;;;1013142;29;1012;-19
2021/11/30 01:51:47;;;;;;;;;;;;;;;;;;1013255;29;864;-18
2021/11/30 01:52:17;;;;;;;;;;;;;;;;;;1009250;29;992;-19
2021/11/30 01:52:50;;;;;;;;;;;;;;;;;;1009196;29;1049;-19
2021/11/30 01:53:21;;;;;;;;;;;;;;;;;;1005868;29;1033;-19
2021/11/30 01:53:52;;;;;;;;;;;;;;;;;;1008915;29;1422;-19
2021/11/30 01:54:22;;;;;;;;;;;;;;;;;;1009206;29;1039;-19
2021/11/30 01:54:53;;;;;;;;;;;;;;;;;;1009037;29;1302;-19
2021/11/30 01:55:23;;;;;;;;;;;;;;;;;;1009588;29;1021;-19
2021/11/30 01:55:54;;;;;;;;;;;;;;;;;;1010077;29;1029;-19
2021/11/30 01:56:24;;;;;;;;;;;;;;;;;;1009743;29;1053;-19
2021/11/30 01:56:56;;;;;;;;;;;;;;;;;;1010110;29;788;-19
2021/11/30 01:57:27;;;;;;;;;;;;;;;;;;1008924;29;1993;-19
2021/11/30 01:58:01;;;;;;;;;;;;;;;;;;1009026;29;1002;-19
2021/11/30 01:58:33;;;;;;;;;;;;;;;;;;1009341;29;1122;-19
2021/11/30 01:59:04;;;;;;;;;;;;;;;;;;1001560;29;1139;-19
2021/11/30 01:59:34;;;;;;;;;;;;;;;;;;1001719;29;1144;-19
2021/11/30 02:00:05;;;;;;;;;;;;;;;;;;1001659;29;985;-19
2021/11/30 02:00:37;;;;;;;;;;;;;;;;;;1002068;29;1043;-19
2021/11/30 02:01:08;;;;;;;;;;;;;;;;;;1009674;29;947;-19
2021/11/30 02:01:38;;;;;;;;;;;;;;;;;;1009541;29;1342;-19
2021/11/30 02:02:11;;;;;;;;;;;;;;;;;;1009772;29;1030;-19
2021/11/30 02:02:42;;;;;;;;;;;;;;;;;;1013013;29;1016;-19
2021/11/30 02:03:12;;;;;;;;;;;;;;;;;;1012820;29;1649;-19
2021/11/30 02:03:43;;;;;;;;;;;;;;;;;;1013278;29;1208;-19
2021/11/30 02:04:15;;;;;;;;;;;;;;;;;;1012507;29;1106;-19
2021/11/30 02:04:45;;;;;;;;;;;;;;;;;;1013075;29;1123;-19
2021/11/30 02:05:16;;;;;;;;;;;;;;;;;;1013191;29;1013;-19
2021/11/30 02:05:46;;;;;;;;;;;;;;;;;;1012946;29;1343;-19
2021/11/30 02:06:17;;;;;;;;;;;;;;;;;;1009122;29;1061;-19
2021/11/30 02:06:48;;;;;;;;;;;;;;;;;;1009053;29;1060;-19
2021/11/30 02:07:19;;;;;;;;;;;;;;;;;;1009314;29;1072;-19
2021/11/30 02:07:49;;;;;;;;;;;;;;;;;;1009231;29;939;-19
2021/11/30 02:08:20;;;;;;;;;;;;;;;;;;1009410;29;944;-19
2021/11/30 02:08:50;;;;;;;;;;;;;;;;;;1008084;29;796;-19
2021/11/30 02:09:21;;;;;;;;;;;;;;;;;;1016203;29;1097;-19
2021/11/30 02:09:51;;;;;;;;;;;;;;;;;;1020844;29;1196;-19
2021/11/30 02:10:22;;;;;;;;;;;;;;;;;;1021028;29;971;-19
2021/11/30 02:10:56;;;;;;;;;;;;;;;;;;1020913;29;971;-19
2021/11/30 02:11:27;;;;;;;;;;;;;;;;;;1017866;29;823;-19
2021/11/30 02:11:57;;;;;;;;;;;;;;;;;;1017126;29;993;-17
2021/11/30 02:12:27;;;;;;;;;;;;;;;;;;1016421;29;1376;-17
2021/11/30 02:12:58;;;;;;;;;;;;;;;;;;1017150;29;1771;-17
2021/11/30 02:13:31;;;;;;;;;;;;;;;;;;1009335;29;1311;-17
2021/11/30 02:14:02;;;;;;;;;;;;;;;;;;1009104;29;1023;-17
2021/11/30 02:14:33;;;;;;;;;;;;;;;;;;1009019;29;1103;-18
2021/11/30 02:15:04;;;;;;;;;;;;;;;;;;1010002;29;898;-18
2021/11/30 02:15:44;;;;;;;;;;;;;;;;;;1017390;29;993;-17
2021/11/30 02:16:18;;;;;;;;;;;;;;;;;;1017132;29;1367;-19
2021/11/30 02:16:49;;;;;;;;;;;;;;;;;;1017796;29;1080;-17
2021/11/30 02:17:19;;;;;;;;;;;;;;;;;;1017731;29;1934;-17
2021/11/30 02:17:51;;;;;;;;;;;;;;;;;;1017649;29;994;-17
2021/11/30 02:18:23;;;;;;;;;;;;;;;;;;1016808;29;892;-17
2021/11/30 02:18:55;;;;;;;;;;;;;;;;;;1009047;29;1006;-17
2021/11/30 02:19:27;;;;;;;;;;;;;;;;;;1009410;29;997;-17
2021/11/30 02:19:59;;;;;;;;;;;;;;;;;;1009524;29;1482;-17
2021/11/30 02:20:31;;;;;;;;;;;;;;;;;;1013861;29;891;-17
2021/11/30 02:21:04;;;;;;;;;;;;;;;;;;1017858;29;1164;-17
2021/11/30 02:21:39;;;;;;;;;;;;;;;;;;1017540;29;831;-18
2021/11/30 02:22:13;;;;;;;;;;;;;;;;;;1017823;29;919;-17
2021/11/30 02:22:50;;;;;;;;;;;;;;;;;;1017333;29;1372;-17
2021/11/30 02:24:10;;;;;;;;;;;;;;;;;;1016506;29;1266;-17
2021/11/30 02:24:42;;;;;;;;;;;;;;;;;;1008946;29;1136;-18
2021/11/30 02:25:12;;;;;;;;;;;;;;;;;;1012559;29;993;-18
2021/11/30 02:25:43;;;;;;;;;;;;;;;;;;1013106;29;1004;-17
2021/11/30 02:26:16;;;;;;;;;;;;;;;;;;1013079;29;992;-17
2021/11/30 02:26:47;;;;;;;;;;;;;;;;;;1017047;29;1037;-17
2021/11/30 02:27:18;;;;;;;;;;;;;;;;;;1017170;29;998;-17
2021/11/30 02:27:50;;;;;;;;;;;;;;;;;;1016934;29;931;-17
2021/11/30 02:28:20;;;;;;;;;;;;;;;;;;1017318;29;1042;-18
2021/11/30 02:28:51;;;;;;;;;;;;;;;;;;1017527;29;776;-18
2021/11/30 02:29:22;;;;;;;;;;;;;;;;;;1012925;29;1590;-17
2021/11/30 02:29:53;;;;;;;;;;;;;;;;;;1005071;29;1217;-17
2021/11/30 02:30:23;;;;;;;;;;;;;;;;;;1005294;29;1277;-17
2021/11/30 02:30:53;;;;;;;;;;;;;;;;;;1004827;29;1275;-17
2021/11/30 02:31:26;;;;;;;;;;;;;;;;;;1013114;29;952;-17
2021/11/30 02:31:57;;;;;;;;;;;;;;;;;;1017805;29;1056;-17
2021/11/30 02:32:27;;;;;;;;;;;;;;;;;;1017484;29;942;-18
2021/11/30 02:32:57;;;;;;;;;;;;;;;;;;1017850;29;912;-17
2021/11/30 02:33:28;;;;;;;;;;;;;;;;;;1017300;29;1467;-17
2021/11/30 02:33:58;;;;;;;;;;;;;;;;;;1017735;29;1104;-17
2021/11/30 02:34:29;;;;;;;;;;;;;;;;;;1017605;29;984;-17
2021/11/30 02:34:59;;;;;;;;;;;;;;;;;;1017246;29;1275;-17
2021/11/30 02:35:30;;;;;;;;;;;;;;;;;;1017529;29;1193;-17
2021/11/30 02:36:00;;;;;;;;;;;;;;;;;;1017527;29;1210;-17
2021/11/30 02:36:37;;;;;;;;;;;;;;;;;;1016880;29;1031;-17
2021/11/30 02:37:12;;;;;;;;;;;;;;;;;;1016885;29;1012;-17
2021/11/30 02:37:48;;;;;;;;;;;;;;;;;;1008884;29;1982;-17
2021/11/30 02:38:19;;;;;;;;;;;;;;;;;;1011256;29;931;-17
2021/11/30 02:38:49;;;;;;;;;;;;;;;;;;1013043;29;1075;-17
2021/11/30 02:39:21;;;;;;;;;;;;;;;;;;1007699;29;901;-17
2021/11/30 02:39:53;;;;;;;;;;;;;;;;;;1005138;29;940;-17
2021/11/30 02:40:23;;;;;;;;;;;;;;;;;;1005376;29;994;-17
2021/11/30 02:40:54;;;;;;;;;;;;;;;;;;1006105;29;997;-17
2021/11/30 02:41:25;;;;;;;;;;;;;;;;;;1012665;29;1442;-17
2021/11/30 02:41:56;;;;;;;;;;;;;;;;;;1017817;29;1144;-17
2021/11/30 02:42:26;;;;;;;;;;;;;;;;;;1017647;29;792;-17
2021/11/30 02:42:57;;;;;;;;;;;;;;;;;;1012657;29;1299;-17
2021/11/30 02:43:27;;;;;;;;;;;;;;;;;;1012664;29;901;-17
2021/11/30 02:43:58;;;;;;;;;;;;;;;;;;1009227;29;1085;-17
2021/11/30 02:44:29;;;;;;;;;;;;;;;;;;1009255;29;1410;-17
2021/11/30 02:45:01;;;;;;;;;;;;;;;;;;1020861;29;914;-17
2021/11/30 02:45:32;;;;;;;;;;;;;;;;;;1012423;29;1196;-17
2021/11/30 02:46:02;;;;;;;;;;;;;;;;;;1012922;29;1112;-17
2021/11/30 02:46:35;;;;;;;;;;;;;;;;;;1012859;29;1062;-18
2021/11/30 02:47:08;;;;;;;;;;;;;;;;;;1012967;29;1041;-17
2021/11/30 02:47:38;;;;;;;;;;;;;;;;;;1009300;29;1067;-17
2021/11/30 02:48:09;;;;;;;;;;;;;;;;;;1009093;29;1267;-17
2021/11/30 02:48:39;;;;;;;;;;;;;;;;;;1013016;29;1174;-16
2021/11/30 02:49:12;;;;;;;;;;;;;;;;;;1013146;29;1113;-17
2021/11/30 02:49:43;;;;;;;;;;;;;;;;;;1017005;29;1279;-17
2021/11/30 02:50:14;;;;;;;;;;;;;;;;;;1017708;29;1060;-17
2021/11/30 02:50:45;;;;;;;;;;;;;;;;;;1017289;29;1279;-17
2021/11/30 02:51:16;;;;;;;;;;;;;;;;;;1017677;29;789;-17
2021/11/30 02:51:49;;;;;;;;;;;;;;;;;;1016814;29;978;-18
2021/11/30 02:52:20;;;;;;;;;;;;;;;;;;1015975;29;1298;-17
2021/11/30 02:52:50;;;;;;;;;;;;;;;;;;1016825;29;1006;-17
2021/11/30 02:53:21;;;;;;;;;;;;;;;;;;1016469;29;1277;-17
2021/11/30 02:53:53;;;;;;;;;;;;;;;;;;1017515;29;1052;-17
2021/11/30 02:54:24;;;;;;;;;;;;;;;;;;1017484;29;909;-17
2021/11/30 02:54:54;;;;;;;;;;;;;;;;;;1016816;29;1078;-17
2021/11/30 02:55:25;;;;;;;;;;;;;;;;;;1017068;29;970;-20
2021/11/30 02:55:56;;;;;;;;;;;;;;;;;;1016413;29;1219;-19
2021/11/30 02:56:28;;;;;;;;;;;;;;;;;;1016713;29;1288;-20
2021/11/30 02:57:00;;;;;;;;;;;;;;;;;;1017492;29;1127;-19
2021/11/30 02:57:31;;;;;;;;;;;;;;;;;;1017418;29;1910;-19
2021/11/30 02:58:02;;;;;;;;;;;;;;;;;;1017147;29;954;-19
2021/11/30 02:58:32;;;;;;;;;;;;;;;;;;1012937;29;926;-19
2021/11/30 02:59:03;;;;;;;;;;;;;;;;;;1012906;29;1463;-19
2021/11/30 02:59:35;;;;;;;;;;;;;;;;;;1009112;29;1039;-19
2021/11/30 03:00:06;;;;;;;;;;;;;;;;;;1012226;29;1317;-19
2021/11/30 03:00:37;;;;;;;;;;;;;;;;;;1008995;29;983;-19
2021/11/30 03:01:10;;;;;;;;;;;;;;;;;;1006434;29;1045;-19
2021/11/30 03:01:41;;;;;;;;;;;;;;;;;;1016451;29;1317;-17
2021/11/30 03:02:17;;;;;;;;;;;;;;;;;;1016729;29;978;-17
2021/11/30 03:02:47;;;;;;;;;;;;;;;;;;1010165;29;1035;-17
2021/11/30 03:03:18;;;;;;;;;;;;;;;;;;1012831;29;950;-17
2021/11/30 03:03:48;;;;;;;;;;;;;;;;;;1013171;29;1000;-17
2021/11/30 03:04:19;;;;;;;;;;;;;;;;;;1012826;29;968;-30
2021/11/30 03:04:50;;;;;;;;;;;;;;;;;;1017737;29;784;-19
2021/11/30 03:05:21;;;;;;;;;;;;;;;;;;1017482;29;931;-17
2021/11/30 03:05:51;;;;;;;;;;;;;;;;;;1017537;29;1049;-17
2021/11/30 03:06:22;;;;;;;;;;;;;;;;;;1012787;29;1169;-17
2021/11/30 03:06:54;;;;;;;;;;;;;;;;;;1008744;29;1244;-17
2021/11/30 03:07:26;;;;;;;;;;;;;;;;;;1009126;29;969;-19
2021/11/30 03:07:56;;;;;;;;;;;;;;;;;;1009651;29;1076;-17
2021/11/30 03:08:26;;;;;;;;;;;;;;;;;;1016915;29;982;-17
2021/11/30 03:08:57;;;;;;;;;;;;;;;;;;1017724;29;1029;-17
2021/11/30 03:09:27;;;;;;;;;;;;;;;;;;1014838;29;1288;-18
2021/11/30 03:09:58;;;;;;;;;;;;;;;;;;1013747;29;860;-17
2021/11/30 03:10:28;;;;;;;;;;;;;;;;;;1012881;29;1157;-17
2021/11/30 03:10:59;;;;;;;;;;;;;;;;;;1013445;29;1074;-17
2021/11/30 03:11:29;;;;;;;;;;;;;;;;;;1013496;29;912;-17
2021/11/30 03:12:00;;;;;;;;;;;;;;;;;;1013237;29;1183;-18
2021/11/30 03:12:30;;;;;;;;;;;;;;;;;;1013442;29;959;-17
2021/11/30 03:13:00;;;;;;;;;;;;;;;;;;1013626;29;935;-17
2021/11/30 03:13:31;;;;;;;;;;;;;;;;;;1013601;29;953;-17
2021/11/30 03:14:02;;;;;;;;;;;;;;;;;;1013654;29;938;-17
2021/11/30 03:14:32;;;;;;;;;;;;;;;;;;1013726;29;947;-17
2021/11/30 03:15:07;;;;;;;;;;;;;;;;;;1013533;29;1007;-17
2021/11/30 03:15:38;;;;;;;;;;;;;;;;;;1013873;29;1080;-20
2021/11/30 03:16:09;;;;;;;;;;;;;;;;;;1012205;29;1446;-17
2021/11/30 03:16:40;;;;;;;;;;;;;;;;;;1012852;29;1069;-17
2021/11/30 03:17:11;;;;;;;;;;;;;;;;;;1012496;29;1879;-17
2021/11/30 03:17:41;;;;;;;;;;;;;;;;;;1012460;29;1915;-17
2021/11/30 03:18:12;;;;;;;;;;;;;;;;;;1012982;29;1581;-17
2021/11/30 03:18:43;;;;;;;;;;;;;;;;;;1012743;29;1011;-17
2021/11/30 03:19:15;;;;;;;;;;;;;;;;;;1012866;29;933;-17
2021/11/30 03:19:45;;;;;;;;;;;;;;;;;;1012917;29;1110;-17
2021/11/30 03:20:17;;;;;;;;;;;;;;;;;;1009140;29;1051;-17
2021/11/30 03:20:47;;;;;;;;;;;;;;;;;;1009003;29;988;-17
2021/11/30 03:21:18;;;;;;;;;;;;;;;;;;1008708;29;1157;-17
2021/11/30 03:21:48;;;;;;;;;;;;;;;;;;1009208;29;984;-17
2021/11/30 03:22:19;;;;;;;;;;;;;;;;;;1013520;29;875;-17
2021/11/30 03:22:49;;;;;;;;;;;;;;;;;;1013216;29;1185;-18
2021/11/30 03:23:20;;;;;;;;;;;;;;;;;;1013565;29;950;-18
2021/11/30 03:23:50;;;;;;;;;;;;;;;;;;1013398;29;1356;-18
2021/11/30 03:24:20;;;;;;;;;;;;;;;;;;1013526;29;976;-18
2021/11/30 03:24:51;;;;;;;;;;;;;;;;;;1009039;29;973;-18
2021/11/30 03:25:22;;;;;;;;;;;;;;;;;;1008951;29;927;-18
2021/11/30 03:25:53;;;;;;;;;;;;;;;;;;1001407;29;1003;-18
2021/11/30 03:26:23;;;;;;;;;;;;;;;;;;1001099;29;1238;-18
2021/11/30 03:26:54;;;;;;;;;;;;;;;;;;1000957;29;1214;-18
2021/11/30 03:27:25;;;;;;;;;;;;;;;;;;1001510;29;1159;-18
2021/11/30 03:27:55;;;;;;;;;;;;;;;;;;1008608;29;1077;-18
2021/11/30 03:28:26;;;;;;;;;;;;;;;;;;1005202;29;1208;-18
2021/11/30 03:28:56;;;;;;;;;;;;;;;;;;1013488;29;980;-18
2021/11/30 03:29:27;;;;;;;;;;;;;;;;;;1012083;29;1326;-17
2021/11/30 03:29:57;;;;;;;;;;;;;;;;;;1013279;29;1101;-18
2021/11/30 03:30:28;;;;;;;;;;;;;;;;;;1013490;29;942;-17
2021/11/30 03:31:06;;;;;;;;;;;;;;;;;;1013616;29;1106;-18
2021/11/30 03:32:12;;;;;;;;;;;;;;;;;;1013419;29;939;-18
2021/11/30 03:34:22;;;;;;;;;;;;;;;;;;1016831;29;1106;-18
2021/11/30 03:34:52;;;;;;;;;;;;;;;;;;1015968;29;796;-18
2021/11/30 03:35:23;;;;;;;;;;;;;;;;;;1017123;29;1042;-18
2021/11/30 03:35:54;;;;;;;;;;;;;;;;;;1016588;29;1514;-18
2021/11/30 03:36:25;;;;;;;;;;;;;;;;;;1016583;29;1448;-18
2021/11/30 03:36:56;;;;;;;;;;;;;;;;;;1016421;29;1142;-18
2021/11/30 03:37:27;;;;;;;;;;;;;;;;;;1008163;29;2001;-18
2021/11/30 03:37:57;;;;;;;;;;;;;;;;;;1009272;29;1094;-18
2021/11/30 03:38:29;;;;;;;;;;;;;;;;;;1012268;29;1177;-18
2021/11/30 03:39:01;;;;;;;;;;;;;;;;;;1012852;29;1255;-18
2021/11/30 03:39:31;;;;;;;;;;;;;;;;;;1016747;29;938;-18
2021/11/30 03:40:04;;;;;;;;;;;;;;;;;;1016473;29;977;-18
2021/11/30 03:40:35;;;;;;;;;;;;;;;;;;1016916;29;963;-17
2021/11/30 03:41:07;;;;;;;;;;;;;;;;;;1012240;29;958;-18
2021/11/30 03:41:38;;;;;;;;;;;;;;;;;;1005015;29;954;-18
2021/11/30 03:42:09;;;;;;;;;;;;;;;;;;1000945;29;1009;-18
2021/11/30 03:42:39;;;;;;;;;;;;;;;;;;1001082;29;1204;-18
2021/11/30 03:43:10;;;;;;;;;;;;;;;;;;1004964;29;1026;-18
2021/11/30 03:43:40;;;;;;;;;;;;;;;;;;1005186;29;1129;-18
2021/11/30 03:44:12;;;;;;;;;;;;;;;;;;1012712;29;1046;-18
2021/11/30 03:44:42;;;;;;;;;;;;;;;;;;1012632;29;1083;-18
2021/11/30 03:45:13;;;;;;;;;;;;;;;;;;1012720;29;1299;-18
2021/11/30 03:45:44;;;;;;;;;;;;;;;;;;1012479;29;959;-18